createdAt,value
2022-09-03T00:01:16.841Z,1.02
2022-09-03T00:03:51.641Z,1.10
2022-09-03T00:06:27.045Z,1.05
2022-09-03T00:09:12.202Z,1.00
2022-09-03T00:11:50.946Z,0.80
2022-09-03T00:14:24.610Z,1.00
2022-09-03T00:16:55.424Z,0.95
2022-09-03T00:19:26.031Z,1.10
2022-09-03T00:22:03.358Z,1.10
2022-09-03T00:24:31.418Z,0.85
2022-09-03T00:27:01.878Z,1.00
2022-09-03T00:29:36.778Z,1.20
2022-09-03T00:32:09.468Z,0.88
2022-09-03T00:34:40.879Z,1.20
2022-09-03T00:37:14.455Z,0.90
2022-09-03T00:39:43.075Z,1.10
2022-09-03T00:42:18.927Z,0.90
2022-09-03T00:45:06.561Z,0.93
2022-09-03T00:47:44.922Z,1.25
2022-09-03T00:50:55.786Z,1.17
2022-09-03T00:53:35.234Z,0.93
2022-09-03T00:56:16.011Z,1.23
2022-09-03T00:59:01.847Z,1.10
2022-09-03T01:01:48.557Z,1.10
2022-09-03T01:04:47.576Z,0.90
2022-09-03T01:07:38.699Z,1.05
2022-09-03T01:10:38.607Z,1.05
2022-09-03T01:13:13.299Z,1.23
2022-09-03T01:15:50.207Z,1.05
2022-09-03T01:18:35.133Z,0.85
2022-09-03T01:21:16.317Z,0.90
2022-09-03T01:23:53.434Z,1.00
2022-09-03T01:26:29.701Z,0.90
2022-09-03T01:29:13.942Z,1.00
2022-09-03T01:32:01.306Z,0.90
2022-09-03T01:34:49.701Z,1.45
2022-09-03T01:37:28.938Z,1.17
2022-09-03T01:40:18.298Z,1.00
2022-09-03T01:43:05.965Z,0.85
2022-09-03T01:45:55.311Z,1.10
2022-09-03T01:48:31.185Z,0.90
2022-09-03T01:51:02.343Z,1.00
2022-09-03T01:54:21.569Z,1.45
2022-09-03T01:57:35.200Z,0.95
2022-09-03T02:00:20.239Z,1.10
2022-09-03T02:02:48.870Z,1.08
2022-09-03T02:05:26.271Z,1.10
2022-09-03T02:08:00.873Z,1.45
2022-09-03T02:10:34.586Z,1.08
2022-09-03T02:13:13.534Z,1.15
2022-09-03T02:15:42.352Z,0.93
2022-09-03T02:18:15.307Z,0.80
2022-09-03T02:20:42.014Z,1.20
2022-09-03T02:23:08.485Z,0.90
2022-09-03T02:25:40.219Z,0.93
2022-09-03T02:28:16.639Z,1.08
2022-09-03T02:30:44.526Z,0.93
2022-09-03T02:33:11.054Z,1.20
2022-09-03T02:35:37.789Z,1.13
2022-09-03T02:38:18.301Z,1.30
2022-09-03T02:40:45.633Z,1.05
2022-09-03T02:43:31.637Z,0.77
2022-09-03T02:46:02.409Z,1.13
2022-09-03T02:48:29.037Z,0.98
2022-09-03T02:50:55.589Z,0.90
2022-09-03T02:53:22.370Z,0.90
2022-09-03T02:55:48.810Z,1.00
2022-09-03T02:58:15.425Z,1.00
2022-09-03T03:00:41.842Z,0.80
2022-09-03T03:03:08.510Z,1.10
2022-09-03T03:05:43.403Z,1.33
2022-09-03T03:08:12.170Z,1.10
2022-09-03T03:10:38.562Z,1.10
2022-09-03T03:13:05.141Z,1.13
2022-09-03T03:15:31.505Z,1.10
2022-09-03T03:17:58.274Z,1.30
2022-09-03T03:20:25.308Z,1.10
2022-09-03T03:22:51.923Z,1.05
2022-09-03T03:25:18.477Z,0.98
2022-09-03T03:27:45.126Z,1.00
2022-09-03T03:30:12.384Z,1.10
2022-09-03T03:32:39.578Z,1.38
2022-09-03T03:35:06.893Z,1.00
2022-09-03T03:37:33.650Z,1.23
2022-09-03T03:40:00.054Z,1.20
2022-09-03T03:42:26.560Z,0.90
2022-09-03T03:44:52.945Z,1.08
2022-09-03T03:47:19.346Z,1.50
2022-09-03T03:49:45.731Z,1.00
2022-09-03T03:52:12.115Z,1.00
2022-09-03T03:54:38.487Z,1.40
2022-09-03T03:57:04.874Z,1.02
2022-09-03T03:59:31.270Z,1.42
2022-09-03T04:01:57.690Z,1.00
2022-09-03T04:04:24.249Z,0.80
2022-09-03T04:06:50.591Z,1.02
2022-09-03T04:09:16.976Z,1.23
2022-09-03T04:11:43.344Z,1.23
2022-09-03T04:14:09.753Z,1.17
2022-09-03T04:16:36.190Z,1.10
2022-09-03T04:19:02.719Z,1.08
2022-09-03T04:21:30.555Z,0.90
2022-09-03T04:23:57.950Z,1.10
2022-09-03T04:26:28.218Z,1.08
2022-09-03T04:28:54.954Z,1.05
2022-09-03T04:31:21.436Z,1.02
2022-09-03T04:33:48.137Z,0.93
2022-09-03T04:36:16.875Z,0.88
2022-09-03T04:38:45.106Z,1.27
2022-09-03T04:41:16.162Z,1.23
2022-09-03T04:43:43.359Z,1.00
2022-09-03T04:46:17.679Z,1.30
2022-09-03T04:48:48.381Z,1.17
2022-09-03T04:51:17.326Z,1.25
2022-09-03T04:53:46.415Z,1.35
2022-09-03T04:56:23.915Z,1.38
2022-09-03T04:58:58.620Z,1.65
2022-09-03T05:01:27.158Z,1.23
2022-09-03T05:03:54.142Z,1.50
2022-09-03T05:06:20.500Z,1.35
2022-09-03T05:08:50.701Z,1.15
2022-09-03T05:11:17.974Z,1.10
2022-09-03T05:13:48.551Z,1.35
2022-09-03T05:16:15.887Z,1.00
2022-09-03T05:18:42.481Z,0.90
2022-09-03T05:21:14.969Z,1.10
2022-09-03T05:23:43.270Z,1.00
2022-09-03T05:26:13.226Z,1.20
2022-09-03T05:28:41.632Z,1.10
2022-09-03T05:31:13.332Z,1.15
2022-09-03T05:33:44.826Z,1.00
2022-09-03T05:36:13.728Z,1.20
2022-09-03T05:38:40.165Z,1.10
2022-09-03T05:41:08.654Z,1.13
2022-09-03T05:43:35.627Z,1.00
2022-09-03T05:46:13.188Z,1.10
2022-09-03T05:48:40.637Z,1.17
2022-09-03T05:51:16.402Z,1.20
2022-09-03T05:53:44.268Z,1.27
2022-09-03T05:56:12.958Z,1.27
2022-09-03T05:58:43.441Z,1.10
2022-09-03T06:01:14.972Z,1.05
2022-09-03T06:03:42.964Z,1.08
2022-09-03T06:06:10.397Z,1.20
2022-09-03T06:08:41.427Z,1.10
2022-09-03T06:11:08.174Z,1.08
2022-09-03T06:13:36.142Z,1.20
2022-09-03T06:16:05.387Z,1.30
2022-09-03T06:18:32.106Z,1.20
2022-09-03T06:21:00.704Z,1.58
2022-09-03T06:23:27.643Z,1.23
2022-09-03T06:26:05.501Z,1.33
2022-09-03T06:28:36.027Z,1.23
2022-09-03T06:31:03.989Z,1.65
2022-09-03T06:33:32.048Z,1.50
2022-09-03T06:35:59.678Z,1.40
2022-09-03T06:38:36.239Z,1.13
2022-09-03T06:41:04.910Z,1.30
2022-09-03T06:43:33.594Z,1.35
2022-09-03T06:46:08.896Z,1.15
2022-09-03T06:48:36.133Z,1.65
2022-09-03T06:51:10.617Z,1.30
2022-09-03T06:53:39.440Z,1.25
2022-09-03T06:56:08.431Z,1.63
2022-09-03T06:58:37.995Z,1.52
2022-09-03T07:01:09.464Z,1.40
2022-09-03T07:03:39.101Z,1.33
2022-09-03T07:06:19.384Z,1.50
2022-09-03T07:08:46.614Z,1.35
2022-09-03T07:11:15.131Z,1.30
2022-09-03T07:13:47.604Z,1.23
2022-09-03T07:16:16.093Z,1.50
2022-09-03T07:18:45.650Z,1.52
2022-09-03T07:21:20.127Z,1.30
2022-09-03T07:23:47.282Z,1.30
2022-09-03T07:26:22.047Z,1.60
2022-09-03T07:28:49.030Z,2.17
2022-09-03T07:31:25.852Z,1.60
2022-09-03T07:34:00.178Z,1.58
2022-09-03T07:38:57.427Z,1.40
2022-09-03T07:41:28.399Z,1.63
2022-09-03T07:43:55.586Z,1.55
2022-09-03T07:46:24.414Z,1.20
2022-09-03T07:48:52.235Z,1.67
2022-09-03T07:51:26.405Z,1.50
2022-09-03T07:53:55.964Z,1.20
2022-09-03T07:56:22.388Z,1.40
2022-09-03T07:58:48.875Z,1.40
2022-09-03T08:01:20.239Z,1.10
2022-09-03T08:03:51.505Z,1.13
2022-09-03T08:06:19.702Z,1.52
2022-09-03T08:08:46.498Z,1.38
2022-09-03T08:11:19.243Z,1.77
2022-09-03T08:13:48.397Z,1.58
2022-09-03T08:16:18.328Z,1.38
2022-09-03T08:18:47.383Z,1.40
2022-09-03T08:21:15.738Z,1.60
2022-09-03T08:23:47.096Z,1.95
2022-09-03T08:26:14.786Z,1.70
2022-09-03T08:28:43.038Z,1.65
2022-09-03T08:31:13.875Z,1.98
2022-09-03T08:33:43.014Z,1.90
2022-09-03T08:36:32.419Z,1.70
2022-09-03T08:39:04.048Z,1.60
2022-09-03T08:41:49.045Z,1.70
2022-09-03T08:44:26.396Z,1.42
2022-09-03T08:47:18.813Z,1.75
2022-09-03T08:50:25.387Z,1.80
2022-09-03T08:52:55.245Z,1.70
2022-09-03T08:55:44.406Z,2.00
2022-09-03T08:58:18.496Z,2.03
2022-09-03T09:01:03.991Z,1.83
2022-09-03T09:03:51.861Z,1.60
2022-09-03T09:07:03.614Z,1.60
2022-09-03T09:09:48.887Z,2.15
2022-09-03T09:12:47.518Z,1.88
2022-09-03T09:15:28.868Z,1.67
2022-09-03T09:18:04.047Z,1.77
2022-09-03T09:20:40.369Z,1.48
2022-09-03T09:23:19.008Z,1.40
2022-09-03T09:25:48.813Z,2.00
2022-09-03T09:28:26.488Z,2.10
2022-09-03T09:30:55.652Z,1.92
2022-09-03T09:33:23.145Z,2.28
2022-09-03T09:35:49.843Z,2.35
2022-09-03T09:38:28.337Z,1.88
2022-09-03T09:40:57.231Z,1.80
2022-09-03T09:43:24.516Z,1.70
2022-09-03T09:45:53.202Z,2.17
2022-09-03T09:48:31.508Z,2.42
2022-09-03T09:51:05.406Z,2.20
2022-09-03T09:53:31.782Z,2.60
2022-09-03T09:55:58.630Z,2.88
2022-09-03T09:58:28.320Z,2.70
2022-09-03T10:01:17.742Z,2.50
2022-09-03T10:04:11.333Z,2.35
2022-09-03T10:06:56.670Z,2.17
2022-09-03T10:09:30.991Z,2.47
2022-09-03T10:12:19.451Z,1.83
2022-09-03T10:14:53.525Z,2.00
2022-09-03T10:17:36.919Z,2.13
2022-09-03T10:20:33.509Z,2.03
2022-09-03T10:23:04.915Z,1.90
2022-09-03T10:25:50.155Z,2.40
2022-09-03T10:28:16.867Z,2.40
2022-09-03T10:30:59.229Z,2.10
2022-09-03T10:33:51.550Z,2.35
2022-09-03T10:36:55.496Z,2.10
2022-09-03T10:39:26.018Z,2.10
2022-09-03T10:42:06.746Z,2.10
2022-09-03T10:44:58.083Z,1.98
2022-09-03T10:47:44.426Z,2.28
2022-09-03T10:50:17.220Z,2.28
2022-09-03T10:52:49.442Z,2.10
2022-09-03T10:55:50.136Z,2.20
2022-09-03T10:58:32.780Z,2.13
2022-09-03T11:01:12.368Z,2.33
2022-09-03T11:03:48.485Z,2.60
2022-09-03T11:06:19.376Z,2.33
2022-09-03T11:08:55.113Z,2.50
2022-09-03T11:11:31.974Z,2.88
2022-09-03T11:14:13.755Z,2.42
2022-09-03T11:16:45.287Z,2.80
2022-09-03T11:19:16.178Z,2.75
2022-09-03T11:21:43.962Z,2.67
2022-09-03T11:24:22.259Z,2.35
2022-09-03T11:26:58.361Z,2.92
2022-09-03T11:29:56.811Z,3.28
2022-09-03T11:32:35.442Z,2.78
2022-09-03T11:35:02.020Z,2.75
2022-09-03T11:37:30.383Z,2.95
2022-09-03T11:39:59.520Z,2.97
2022-09-03T11:42:44.982Z,2.70
2022-09-03T11:45:44.286Z,2.20
2022-09-03T11:48:34.895Z,2.85
2022-09-03T11:51:01.366Z,3.30
2022-09-03T11:53:34.545Z,2.60
2022-09-03T11:56:20.772Z,2.80
2022-09-03T11:59:04.148Z,2.67
2022-09-03T12:01:31.556Z,2.42
2022-09-03T12:04:07.347Z,2.45
2022-09-03T12:06:48.688Z,2.70
2022-09-03T12:09:30.195Z,2.50
2022-09-03T12:12:02.362Z,2.83
2022-09-03T12:14:37.549Z,3.00
2022-09-03T12:17:18.550Z,2.60
2022-09-03T12:19:52.745Z,2.50
2022-09-03T12:22:21.366Z,2.30
2022-09-03T12:24:48.055Z,2.45
2022-09-03T12:27:26.089Z,2.17
2022-09-03T12:29:59.895Z,2.20
2022-09-03T12:32:32.253Z,2.30
2022-09-03T12:35:09.518Z,2.17
2022-09-03T12:40:27.104Z,1.75
2022-09-03T12:42:54.230Z,1.60
2022-09-03T12:45:23.333Z,2.13
2022-09-03T12:47:50.644Z,1.60
2022-09-03T12:50:24.371Z,1.88
2022-09-03T12:53:00.054Z,1.80
2022-09-03T12:55:35.407Z,2.08
2022-09-03T12:58:09.233Z,2.05
2022-09-03T13:00:44.527Z,1.77
2022-09-03T13:03:31.499Z,2.33
2022-09-03T13:06:08.874Z,2.15
2022-09-03T13:08:51.571Z,2.05
2022-09-03T13:11:20.594Z,1.83
2022-09-03T13:14:11.189Z,1.90
2022-09-03T13:16:46.294Z,2.20
2022-09-03T13:19:35.917Z,2.33
2022-09-03T13:22:20.807Z,2.08
2022-09-03T13:24:52.926Z,2.30
2022-09-03T13:27:34.305Z,2.28
2022-09-03T13:30:31.125Z,2.25
2022-09-03T13:33:02.780Z,2.40
2022-09-03T13:35:48.527Z,2.10
2022-09-03T13:38:23.938Z,2.25
2022-09-03T13:41:01.402Z,2.10
2022-09-03T13:43:35.206Z,2.40
2022-09-03T13:46:11.928Z,1.77
2022-09-03T13:49:00.878Z,2.30
2022-09-03T13:51:31.023Z,1.85
2022-09-03T13:54:04.385Z,2.10
2022-09-03T13:56:36.510Z,1.97
2022-09-03T13:59:16.858Z,1.80
2022-09-03T14:02:05.828Z,1.80
2022-09-03T14:04:43.175Z,1.80
2022-09-03T14:07:48.007Z,1.80
2022-09-03T14:10:14.271Z,1.73
2022-09-03T14:12:46.570Z,1.98
2022-09-03T14:15:29.317Z,2.28
2022-09-03T14:18:02.358Z,1.52
2022-09-03T14:20:32.209Z,1.77
2022-09-03T14:23:08.693Z,1.90
2022-09-03T14:25:35.270Z,1.77
2022-09-03T14:28:16.085Z,1.52
2022-09-03T14:31:03.335Z,1.50
2022-09-03T14:33:36.641Z,1.55
2022-09-03T14:36:35.033Z,1.60
2022-09-03T14:39:30.831Z,1.52
2022-09-03T14:42:36.114Z,1.10
2022-09-03T14:45:26.282Z,1.20
2022-09-03T14:48:14.257Z,1.42
2022-09-03T14:50:43.484Z,1.30
2022-09-03T14:53:14.076Z,1.30
2022-09-03T14:56:12.895Z,1.67
2022-09-03T14:58:49.618Z,1.55
2022-09-03T15:01:29.200Z,2.03
2022-09-03T15:04:16.332Z,1.63
2022-09-03T15:07:16.666Z,1.67
2022-09-03T15:09:46.122Z,1.70
2022-09-03T15:12:27.579Z,1.33
2022-09-03T15:14:54.114Z,1.40
2022-09-03T15:17:31.309Z,1.67
2022-09-03T15:20:06.858Z,1.50
2022-09-03T15:22:58.063Z,1.38
2022-09-03T15:25:27.722Z,1.48
2022-09-03T15:28:02.237Z,1.48
2022-09-03T15:30:38.054Z,1.25
2022-09-03T15:33:29.462Z,1.60
2022-09-03T15:36:19.055Z,1.77
2022-09-03T15:39:05.418Z,1.30
2022-09-03T15:41:40.413Z,1.45
2022-09-03T15:44:18.425Z,1.30
2022-09-03T15:46:52.756Z,1.35
2022-09-03T15:49:31.203Z,1.60
2022-09-03T15:51:57.866Z,1.52
2022-09-03T15:54:36.436Z,1.60
2022-09-03T15:57:12.047Z,1.52
2022-09-03T15:59:47.348Z,1.92
2022-09-03T16:02:33.511Z,1.58
2022-09-03T16:05:08.539Z,1.70
2022-09-03T16:07:37.635Z,1.40
2022-09-03T16:10:30.816Z,1.60
2022-09-03T16:13:30.205Z,1.80
2022-09-03T16:16:06.114Z,1.80
2022-09-03T16:18:37.622Z,1.77
2022-09-03T16:21:06.754Z,1.60
2022-09-03T16:23:37.321Z,1.92
2022-09-03T16:26:18.941Z,1.55
2022-09-03T16:28:50.550Z,1.65
2022-09-03T16:31:35.794Z,2.13
2022-09-03T16:34:04.762Z,2.38
2022-09-03T16:36:49.698Z,2.10
2022-09-03T16:39:25.791Z,2.05
2022-09-03T16:42:31.239Z,2.03
2022-09-03T16:45:13.591Z,1.58
2022-09-03T16:47:51.976Z,1.90
2022-09-03T16:50:29.099Z,1.70
2022-09-03T16:53:11.059Z,1.70
2022-09-03T16:55:59.873Z,1.95
2022-09-03T16:58:38.783Z,1.73
2022-09-03T17:01:17.705Z,1.95
2022-09-03T17:04:08.150Z,1.77
2022-09-03T17:07:13.051Z,1.80
2022-09-03T17:10:17.362Z,1.60
2022-09-03T17:12:46.707Z,1.20
2022-09-03T17:15:34.015Z,1.33
2022-09-03T17:18:26.210Z,1.13
2022-09-03T17:20:55.655Z,0.90
2022-09-03T17:23:46.957Z,0.95
2022-09-03T17:26:16.653Z,1.00
2022-09-03T17:28:47.000Z,0.90
2022-09-03T17:31:39.462Z,1.00
2022-09-03T17:34:43.002Z,1.10
2022-09-03T17:37:21.555Z,1.00
2022-09-03T17:39:59.678Z,0.85
2022-09-03T17:42:33.446Z,0.88
2022-09-03T17:45:07.995Z,1.08
2022-09-03T17:48:00.797Z,1.00
2022-09-03T17:50:32.316Z,1.00
2022-09-03T17:53:03.222Z,0.73
2022-09-03T17:55:36.447Z,0.88
2022-09-03T17:58:17.597Z,1.02
2022-09-03T18:01:01.182Z,2.53
2022-09-03T18:03:33.112Z,1.73
2022-09-03T18:06:08.085Z,1.42
2022-09-03T18:08:51.738Z,1.73
2022-09-03T18:11:34.041Z,1.30
2022-09-03T18:14:08.112Z,1.08
2022-09-03T18:16:37.957Z,1.20
2022-09-03T18:19:31.629Z,1.08
2022-09-03T18:22:22.545Z,1.08
2022-09-03T18:25:13.773Z,0.80
2022-09-03T18:28:02.225Z,0.70
2022-09-03T18:30:47.382Z,0.77
2022-09-03T18:33:32.806Z,0.88
2022-09-03T18:36:18.146Z,0.75
2022-09-03T18:39:03.265Z,1.08
2022-09-03T18:42:16.223Z,0.90
2022-09-03T18:45:41.981Z,1.00
2022-09-03T18:48:41.655Z,0.82
2022-09-03T18:51:35.545Z,0.80
2022-09-03T18:54:50.636Z,0.80
2022-09-03T18:57:47.272Z,0.60
2022-09-03T19:00:34.038Z,0.90
2022-09-03T19:03:19.164Z,0.70
2022-09-03T19:06:34.022Z,0.82
2022-09-03T19:09:28.631Z,1.08
2022-09-03T19:12:38.932Z,1.10
2022-09-03T19:15:38.643Z,1.67
2022-09-03T19:18:56.303Z,1.25
2022-09-03T19:22:28.873Z,1.30
2022-09-03T19:25:23.997Z,1.85
2022-09-03T19:28:21.495Z,1.10
2022-09-03T19:31:43.428Z,1.10
2022-09-03T19:34:51.125Z,1.83
2022-09-03T19:38:05.545Z,1.05
2022-09-03T19:41:08.922Z,1.10
2022-09-03T19:44:08.905Z,0.70
2022-09-03T19:47:01.762Z,0.82
2022-09-03T19:50:22.133Z,0.90
2022-09-03T19:53:09.635Z,1.13
2022-09-03T19:56:06.670Z,0.90
2022-09-03T19:58:54.388Z,1.00
2022-09-03T20:01:39.396Z,1.00
2022-09-03T20:04:31.552Z,0.95
2022-09-03T20:07:19.601Z,1.30
2022-09-03T20:10:05.510Z,1.10
2022-09-03T20:12:38.921Z,1.55
2022-09-03T20:15:09.874Z,1.40
2022-09-03T20:18:06.187Z,1.08
2022-09-03T20:20:42.985Z,1.30
2022-09-03T20:23:36.389Z,1.40
2022-09-03T20:26:24.961Z,1.20
2022-09-03T20:29:07.095Z,1.45
2022-09-03T20:31:40.349Z,1.60
2022-09-03T20:34:12.698Z,1.52
2022-09-03T20:37:04.238Z,1.45
2022-09-03T20:39:56.832Z,1.10
2022-09-03T20:42:54.568Z,1.60
2022-09-03T20:45:31.585Z,1.70
2022-09-03T20:48:11.291Z,1.20
2022-09-03T20:50:59.380Z,1.20
2022-09-03T20:54:15.394Z,1.42
2022-09-03T20:56:54.909Z,1.35
2022-09-03T20:59:41.754Z,1.73
2022-09-03T21:02:25.539Z,1.77
2022-09-03T21:05:06.289Z,1.30
2022-09-03T21:07:45.146Z,1.35
2022-09-03T21:10:20.345Z,1.38
2022-09-03T21:12:46.888Z,1.40
2022-09-03T21:15:30.768Z,1.40
2022-09-03T21:18:09.409Z,1.40
2022-09-03T21:20:59.621Z,1.40
2022-09-03T21:23:31.706Z,1.42
2022-09-03T21:26:04.198Z,1.38
2022-09-03T21:28:38.402Z,1.30
2022-09-03T21:31:15.687Z,1.27
2022-09-03T21:33:49.870Z,1.27
2022-09-03T21:36:25.475Z,1.58
2022-09-03T21:39:07.052Z,1.40
2022-09-03T21:41:38.311Z,1.50
2022-09-03T21:44:21.588Z,1.30
2022-09-03T21:46:56.712Z,1.52
2022-09-03T21:51:57.484Z,1.52
2022-09-03T21:54:28.836Z,1.40
2022-09-03T21:57:22.055Z,1.20
2022-09-03T21:59:48.899Z,1.20
2022-09-03T22:02:31.961Z,1.10
2022-09-03T22:05:00.246Z,1.13
2022-09-03T22:07:44.183Z,1.10
2022-09-03T22:10:45.369Z,1.23
2022-09-03T22:13:33.356Z,1.25
2022-09-03T22:16:33.292Z,1.27
2022-09-03T22:18:59.726Z,1.20
2022-09-03T22:21:36.951Z,1.27
2022-09-03T22:24:18.820Z,1.30
2022-09-03T22:27:05.267Z,1.20
2022-09-03T22:29:47.917Z,1.38
2022-09-03T22:32:40.754Z,1.17
2022-09-03T22:35:22.274Z,1.30
2022-09-03T22:38:22.561Z,1.40
2022-09-03T22:40:59.789Z,1.20
2022-09-03T22:43:41.245Z,1.30
2022-09-03T22:46:13.600Z,1.10
2022-09-03T22:48:39.886Z,0.98
2022-09-03T22:51:06.585Z,1.13
2022-09-03T22:53:49.794Z,1.30
2022-09-03T22:56:21.859Z,1.30
2022-09-03T22:58:55.612Z,1.25
2022-09-03T23:01:23.499Z,1.48
2022-09-03T23:03:52.636Z,1.13
2022-09-03T23:06:32.339Z,0.98
2022-09-03T23:09:05.301Z,1.15
2022-09-03T23:11:42.042Z,1.20
2022-09-03T23:14:12.435Z,1.00
2022-09-03T23:16:46.914Z,0.70
2022-09-03T23:21:54.200Z,1.00
2022-09-03T23:24:33.930Z,1.05
2022-09-03T23:27:04.364Z,1.17
2022-09-03T23:29:40.643Z,1.13
2022-09-03T23:32:09.075Z,1.02
2022-09-03T23:34:35.988Z,1.20
2022-09-03T23:37:34.823Z,1.20
2022-09-03T23:40:27.237Z,1.15
2022-09-03T23:43:11.700Z,1.13
2022-09-03T23:45:56.489Z,1.25
2022-09-03T23:48:49.783Z,1.20
2022-09-03T23:51:37.409Z,1.40
2022-09-03T23:54:10.305Z,1.30
2022-09-03T23:56:49.777Z,1.08
2022-09-03T23:59:55.051Z,1.30
